Time;durP1;ratioP1;P1;durP2;ratioP2;P2;SDS_P1;SDS_P2;PMS_P1;PMS_P2;Temp;Humidity;BMP_temperature;BMP_pressure;BME280_temperature;BME280_humidity;BME280_pressure;Samples;Min_cycle;Max_cycle;Signal;HPM_P1;HPM_P2
2021/01/01 00:00:44;;;;;;;13.73;7.03;;;5.50;99.90;;;;;;5083520;28;20079;-48
2021/01/01 00:03:10;;;;;;;11.70;5.65;;;5.40;99.90;;;;;;5084066;28;20051;-50
2021/01/01 00:05:35;;;;;;;10.60;5.43;;;5.50;99.90;;;;;;5083374;28;20493;-48
2021/01/01 00:08:01;;;;;;;11.35;6.90;;;5.50;99.90;;;;;;5083979;28;20028;-47
2021/01/01 00:10:27;;;;;;;13.20;7.45;;;5.30;99.90;;;;;;5082000;28;20162;-48
2021/01/01 00:12:52;;;;;;;10.98;6.80;;;5.30;99.90;;;;;;5083395;28;20028;-48
2021/01/01 00:15:19;;;;;;;9.50;6.00;;;5.20;99.90;;;;;;5083885;28;20166;-49
2021/01/01 00:17:45;;;;;;;11.50;6.72;;;5.10;99.90;;;;;;5083506;28;20020;-47
2021/01/01 00:20:11;;;;;;;8.68;5.75;;;5.00;99.90;;;;;;5082266;28;20028;-47
2021/01/01 00:22:39;;;;;;;10.60;6.50;;;5.10;99.90;;;;;;5081824;28;20109;-47
2021/01/01 00:25:05;;;;;;;13.70;7.95;;;5.10;99.90;;;;;;5080143;28;20028;-47
2021/01/01 00:27:31;;;;;;;11.93;7.15;;;5.00;99.90;;;;;;5084073;28;20414;-48
2021/01/01 00:29:58;;;;;;;15.80;7.82;;;5.00;99.90;;;;;;5082688;28;20024;-47
2021/01/01 00:32:24;;;;;;;13.57;7.38;;;5.00;99.90;;;;;;5083430;28;20036;-48
2021/01/01 00:34:51;;;;;;;11.13;6.38;;;5.10;99.90;;;;;;5082105;28;20031;-47
2021/01/01 00:37:17;;;;;;;9.68;5.65;;;5.00;99.90;;;;;;5084165;28;20031;-47
2021/01/01 00:39:43;;;;;;;7.38;4.53;;;5.10;99.90;;;;;;5082964;28;20020;-51
2021/01/01 00:42:09;;;;;;;4.88;3.35;;;5.10;99.90;;;;;;5076968;28;20032;-47
2021/01/01 00:44:34;;;;;;;4.78;3.28;;;5.10;99.90;;;;;;5064845;28;20082;-47
2021/01/01 00:47:01;;;;;;;6.32;4.40;;;4.90;99.90;;;;;;5066591;28;20111;-48
2021/01/01 00:49:27;;;;;;;6.07;3.83;;;4.80;99.90;;;;;;5066765;28;20059;-48
2021/01/01 00:51:54;;;;;;;4.40;3.10;;;4.90;99.90;;;;;;5066624;28;20056;-48
2021/01/01 00:54:19;;;;;;;3.20;2.30;;;5.00;99.90;;;;;;5066729;28;20453;-47
2021/01/01 00:56:45;;;;;;;3.58;2.75;;;4.90;99.90;;;;;;5086426;28;20036;-47
2021/01/01 00:59:11;;;;;;;3.92;2.50;;;4.90;99.90;;;;;;5086638;28;20028;-50
2021/01/01 01:01:37;;;;;;;2.42;1.85;;;4.90;99.90;;;;;;5085554;28;20482;-48
2021/01/01 01:04:02;;;;;;;2.72;1.95;;;4.90;99.90;;;;;;5086726;28;20051;-48
2021/01/01 01:06:29;;;;;;;3.00;2.20;;;4.90;99.90;;;;;;5086929;28;20035;-47
2021/01/01 01:08:55;;;;;;;2.22;1.80;;;4.90;99.90;;;;;;5086705;28;20027;-48
2021/01/01 01:11:29;;;;;;;2.42;1.90;;;5.10;99.90;;;;;;5071278;28;20410;-48
2021/01/01 01:13:56;;;;;;;3.60;2.47;;;5.00;99.90;;;;;;5066133;28;20020;-46
2021/01/01 01:16:29;;;;;;;3.55;2.60;;;5.00;99.90;;;;;;5066342;28;20052;-48
2021/01/01 01:18:57;;;;;;;2.67;1.93;;;5.00;99.90;;;;;;5065970;28;20028;-51
2021/01/01 01:21:24;;;;;;;2.85;2.00;;;5.00;99.90;;;;;;5066429;28;20513;-47
2021/01/01 01:23:52;;;;;;;3.13;2.13;;;5.10;99.90;;;;;;5066461;28;20029;-47
2021/01/01 01:26:18;;;;;;;2.83;1.98;;;5.20;99.90;;;;;;5066725;28;20488;-50
2021/01/01 01:28:44;;;;;;;2.15;1.77;;;5.20;99.90;;;;;;5066670;28;20032;-48
2021/01/01 01:31:10;;;;;;;2.10;1.65;;;5.20;99.90;;;;;;5065732;28;20055;-49
2021/01/01 01:33:36;;;;;;;3.47;2.47;;;5.20;99.90;;;;;;5064321;28;20060;-48
2021/01/01 01:36:02;;;;;;;3.58;2.35;;;5.40;99.90;;;;;;5066060;28;20044;-48
2021/01/01 01:38:28;;;;;;;2.58;1.90;;;5.40;99.90;;;;;;5065798;28;20399;-47
2021/01/01 01:40:54;;;;;;;3.47;2.15;;;5.30;99.90;;;;;;5065003;28;20031;-48
2021/01/01 01:43:20;;;;;;;2.45;1.92;;;5.50;99.90;;;;;;5082797;28;20066;-48
2021/01/01 01:45:46;;;;;;;1.98;1.63;;;5.50;99.90;;;;;;5084933;28;20409;-48
2021/01/01 01:48:16;;;;;;;2.15;1.83;;;5.40;99.90;;;;;;5084978;28;20055;-48
2021/01/01 01:50:43;;;;;;;2.60;1.88;;;5.50;99.90;;;;;;5085701;28;20024;-49
2021/01/01 01:53:10;;;;;;;1.48;1.38;;;5.70;99.90;;;;;;5085938;28;20055;-47
2021/01/01 01:55:37;;;;;;;1.77;1.40;;;5.70;99.90;;;;;;5085039;28;20024;-49
2021/01/01 01:58:03;;;;;;;1.48;1.30;;;5.80;99.90;;;;;;5085768;28;20020;-48
2021/01/01 02:00:49;;;;;;;1.50;1.20;;;5.90;99.90;;;;;;5085769;28;20020;-49
2021/01/01 02:03:15;;;;;;;1.42;1.23;;;5.70;99.90;;;;;;5086243;28;20028;-52
2021/01/01 02:05:42;;;;;;;1.20;1.00;;;5.50;99.90;;;;;;5085472;28;20032;-48
2021/01/01 02:08:08;;;;;;;1.92;1.48;;;5.60;99.90;;;;;;5085868;28;20035;-50
2021/01/01 02:10:34;;;;;;;2.20;1.50;;;5.70;99.90;;;;;;5077481;28;20541;-48
2021/01/01 02:13:01;;;;;;;3.00;1.80;;;5.50;99.90;;;;;;5064995;28;20024;-50
2021/01/01 02:15:29;;;;;;;1.88;1.48;;;5.50;99.90;;;;;;5063764;28;20031;-48
2021/01/01 02:17:58;;;;;;;2.08;1.58;;;5.50;99.90;;;;;;5064777;28;20339;-47
2021/01/01 02:20:24;;;;;;;2.20;1.50;;;5.60;99.90;;;;;;5077875;28;20458;-50
2021/01/01 02:22:51;;;;;;;2.15;1.85;;;5.60;99.90;;;;;;5085059;28;20103;-48
2021/01/01 02:25:17;;;;;;;1.83;1.55;;;5.60;99.90;;;;;;5085881;28;20510;-50
2021/01/01 02:27:43;;;;;;;1.63;1.50;;;5.60;99.90;;;;;;5085287;28;20020;-51
2021/01/01 02:30:09;;;;;;;2.15;1.58;;;5.50;99.90;;;;;;5085261;28;20020;-51
2021/01/01 02:32:35;;;;;;;1.70;1.30;;;5.40;99.90;;;;;;5083223;28;20020;-47
2021/01/01 02:35:01;;;;;;;2.35;1.60;;;5.30;99.90;;;;;;5073942;28;20405;-49
2021/01/01 02:37:28;;;;;;;1.55;1.45;;;5.30;99.90;;;;;;5069779;28;20081;-50
2021/01/01 02:39:54;;;;;;;1.65;1.48;;;5.40;99.90;;;;;;5085649;28;20028;-49
2021/01/01 02:42:19;;;;;;;1.80;1.52;;;5.40;99.90;;;;;;5085478;28;20089;-47
2021/01/01 02:44:47;;;;;;;1.88;1.70;;;5.30;99.90;;;;;;5084800;28;20036;-48
2021/01/01 02:47:15;;;;;;;1.65;1.35;;;5.30;99.90;;;;;;5083206;28;20032;-47
2021/01/01 02:49:41;;;;;;;1.63;1.40;;;5.40;99.90;;;;;;5085331;28;20035;-47
2021/01/01 02:52:07;;;;;;;1.70;1.38;;;5.40;99.90;;;;;;5085609;28;20067;-46
2021/01/01 02:54:32;;;;;;;2.30;1.80;;;5.30;99.90;;;;;;5084612;28;20040;-47
2021/01/01 02:56:58;;;;;;;2.70;2.03;;;5.30;99.90;;;;;;5084202;28;20043;-46
2021/01/01 02:59:24;;;;;;;1.58;1.30;;;5.20;99.90;;;;;;5085197;28;20024;-47
2021/01/01 03:01:51;;;;;;;2.20;1.60;;;5.20;99.90;;;;;;5084677;28;20575;-47
2021/01/01 03:04:18;;;;;;;2.08;1.52;;;5.10;99.90;;;;;;5086044;28;20533;-48
2021/01/01 03:06:43;;;;;;;1.95;1.40;;;5.10;99.90;;;;;;5083202;28;20137;-46
2021/01/01 03:09:09;;;;;;;1.70;1.45;;;5.10;99.90;;;;;;5084947;28;20115;-48
2021/01/01 03:11:35;;;;;;;2.25;1.60;;;5.20;99.90;;;;;;5084270;28;20036;-50
2021/01/01 03:14:00;;;;;;;2.50;1.45;;;5.30;99.90;;;;;;5084865;28;20028;-49
2021/01/01 03:16:26;;;;;;;2.00;1.55;;;5.30;99.90;;;;;;5070252;28;20051;-46
2021/01/01 03:18:52;;;;;;;1.92;1.65;;;5.10;99.90;;;;;;5064264;28;20024;-46
2021/01/01 03:21:19;;;;;;;2.05;1.50;;;5.20;99.90;;;;;;5065266;28;20055;-48
2021/01/01 03:23:45;;;;;;;1.42;1.20;;;5.20;99.90;;;;;;5064956;28;20028;-49
2021/01/01 03:26:11;;;;;;;2.13;1.42;;;5.20;99.90;;;;;;5075214;28;20059;-47
2021/01/01 03:28:37;;;;;;;1.60;1.10;;;5.20;99.90;;;;;;5084575;28;20055;-47
2021/01/01 03:31:03;;;;;;;1.38;1.10;;;5.00;99.90;;;;;;5084690;28;20023;-48
2021/01/01 03:33:28;;;;;;;1.25;1.13;;;5.10;99.90;;;;;;5083266;28;20454;-47
2021/01/01 03:35:54;;;;;;;1.35;1.25;;;5.10;99.90;;;;;;5084511;28;20037;-47
2021/01/01 03:38:20;;;;;;;2.60;1.92;;;5.10;99.90;;;;;;5084553;28;20077;-49
2021/01/01 03:40:49;;;;;;;2.90;2.33;;;5.10;99.90;;;;;;5084948;28;20036;-47
2021/01/01 03:43:14;;;;;;;3.05;2.20;;;5.10;99.90;;;;;;5076172;28;20036;-46
2021/01/01 03:45:40;;;;;;;3.10;1.77;;;5.10;99.90;;;;;;5063952;28;20078;-48
2021/01/01 03:48:07;;;;;;;3.72;2.63;;;5.10;99.90;;;;;;5064530;28;20043;-47
2021/01/01 03:50:33;;;;;;;9.00;3.88;;;4.90;99.90;;;;;;5064005;28;20058;-47
2021/01/01 03:52:58;;;;;;;9.65;4.10;;;4.90;99.90;;;;;;5083212;28;20086;-49
2021/01/01 03:55:24;;;;;;;8.23;3.95;;;5.10;99.90;;;;;;5082663;28;20028;-48
2021/01/01 03:57:50;;;;;;;11.32;4.82;;;5.00;99.90;;;;;;5084077;28;20032;-48
2021/01/01 04:00:16;;;;;;;14.50;6.40;;;4.90;99.90;;;;;;5085295;28;20216;-50
2021/01/01 04:02:41;;;;;;;17.65;7.15;;;5.00;99.90;;;;;;5081280;28;20022;-47
2021/01/01 04:05:08;;;;;;;22.38;7.95;;;4.90;99.90;;;;;;5084226;28;20028;-47
2021/01/01 04:07:33;;;;;;;26.15;8.93;;;4.80;99.90;;;;;;5084422;28;20032;-48
2021/01/01 04:09:59;;;;;;;19.98;6.72;;;4.80;99.90;;;;;;5084282;28;20032;-47
2021/01/01 04:12:25;;;;;;;35.50;11.13;;;4.80;99.90;;;;;;5082976;28;20047;-50
2021/01/01 04:14:51;;;;;;;28.77;10.38;;;4.80;99.90;;;;;;5084369;28;20021;-49
2021/01/01 04:17:18;;;;;;;31.02;11.07;;;4.70;99.90;;;;;;5084665;28;20031;-48
2021/01/01 04:19:43;;;;;;;21.70;9.25;;;4.60;99.90;;;;;;5087933;28;20493;-48
2021/01/01 04:22:09;;;;;;;15.48;6.75;;;4.50;99.90;;;;;;5076907;28;20052;-49
2021/01/01 04:24:36;;;;;;;9.73;4.75;;;4.60;99.90;;;;;;5067705;28;20109;-49
2021/01/01 04:27:01;;;;;;;8.57;3.75;;;4.50;99.90;;;;;;5067531;28;20031;-48
2021/01/01 04:29:27;;;;;;;6.95;3.22;;;4.60;99.90;;;;;;5068887;28;20029;-48
2021/01/01 04:31:53;;;;;;;5.90;3.03;;;4.60;99.90;;;;;;5088087;28;20032;-47
2021/01/01 04:34:20;;;;;;;3.85;2.40;;;4.40;99.90;;;;;;5087864;28;20043;-48
2021/01/01 04:36:47;;;;;;;3.63;2.30;;;4.30;99.90;;;;;;5088299;28;20048;-48
2021/01/01 04:39:12;;;;;;;1.80;1.60;;;4.40;99.90;;;;;;5087605;28;20482;-49
2021/01/01 04:41:40;;;;;;;1.63;1.48;;;4.40;99.90;;;;;;5083413;28;20030;-47
2021/01/01 04:44:08;;;;;;;3.42;1.88;;;4.40;99.90;;;;;;5086417;28;20036;-47
2021/01/01 04:46:37;;;;;;;2.13;1.73;;;4.30;99.90;;;;;;5087475;28;20027;-47
2021/01/01 04:49:03;;;;;;;2.88;2.55;;;4.20;99.90;;;;;;5085786;28;20039;-48
2021/01/01 04:51:29;;;;;;;3.42;2.45;;;4.10;99.90;;;;;;5087704;28;20032;-47
2021/01/01 04:53:56;;;;;;;3.05;2.50;;;4.20;99.90;;;;;;5087265;28;20050;-46
2021/01/01 04:56:23;;;;;;;3.55;2.90;;;4.10;99.90;;;;;;5087322;28;20117;-47
2021/01/01 04:58:49;;;;;;;3.22;2.70;;;4.10;99.90;;;;;;5086759;28;20440;-47
2021/01/01 05:01:15;;;;;;;3.75;2.80;;;4.00;99.90;;;;;;5088123;28;20020;-47
2021/01/01 05:03:41;;;;;;;3.88;2.40;;;4.00;99.90;;;;;;5087258;28;20394;-47
2021/01/01 05:06:06;;;;;;;3.55;2.80;;;3.80;99.90;;;;;;5087473;28;20115;-47
2021/01/01 05:08:32;;;;;;;3.60;2.88;;;3.80;99.90;;;;;;5072010;28;20394;-48
2021/01/01 05:11:05;;;;;;;3.38;2.60;;;3.80;99.90;;;;;;5066399;28;20090;-48
2021/01/01 05:13:31;;;;;;;2.88;2.40;;;3.90;99.90;;;;;;5067136;28;20024;-47
2021/01/01 05:15:56;;;;;;;3.67;2.55;;;4.10;99.90;;;;;;5083955;28;20081;-48
2021/01/01 05:18:27;;;;;;;2.40;2.20;;;3.90;99.90;;;;;;5087211;28;20490;-48
2021/01/01 05:20:59;;;;;;;2.85;2.55;;;4.00;99.90;;;;;;5087105;28;20031;-48
2021/01/01 05:23:26;;;;;;;4.57;2.42;;;3.90;99.90;;;;;;5085548;28;20060;-48
2021/01/01 05:26:12;;;;;;;3.28;2.40;;;3.90;99.90;;;;;;5087261;28;21141;-51
2021/01/01 05:29:07;;;;;;;2.25;1.98;;;4.00;99.90;;;;;;5086782;28;20027;-47
2021/01/01 05:31:39;;;;;;;2.80;2.33;;;4.00;99.90;;;;;;5085283;28;20093;-48
2021/01/01 05:34:10;;;;;;;2.58;2.35;;;3.80;99.90;;;;;;5072059;28;20930;-50
2021/01/01 05:36:44;;;;;;;2.50;2.00;;;3.70;99.90;;;;;;5066492;28;20071;-47
2021/01/01 05:39:22;;;;;;;2.45;2.03;;;3.90;99.90;;;;;;5066658;28;20148;-48
2021/01/01 05:41:53;;;;;;;1.92;1.63;;;3.80;99.90;;;;;;5075217;28;20021;-49
2021/01/01 05:44:28;;;;;;;2.13;1.92;;;3.80;99.90;;;;;;5081524;28;20035;-48
2021/01/01 05:46:56;;;;;;;2.13;1.77;;;3.90;99.90;;;;;;5086230;28;20024;-47
2021/01/01 05:49:24;;;;;;;2.70;2.20;;;3.90;99.90;;;;;;5086822;28;20028;-51
2021/01/01 05:52:12;;;;;;;2.00;1.70;;;3.70;99.90;;;;;;5078511;28;20028;-48
2021/01/01 05:54:46;;;;;;;1.95;1.70;;;3.90;99.90;;;;;;5067677;28;20051;-49
2021/01/01 05:57:14;;;;;;;2.47;1.90;;;3.80;99.90;;;;;;5067693;28;20511;-48
2021/01/01 05:59:41;;;;;;;1.98;1.77;;;3.90;99.90;;;;;;5080121;28;20040;-47
2021/01/01 06:02:10;;;;;;;2.20;1.88;;;3.90;99.90;;;;;;5087879;28;20069;-52
2021/01/01 06:04:37;;;;;;;1.70;1.60;;;3.80;99.90;;;;;;5088268;28;20772;-48
2021/01/01 06:07:07;;;;;;;2.30;1.80;;;3.70;99.90;;;;;;5081500;28;20040;-50
2021/01/01 06:09:34;;;;;;;2.17;1.98;;;3.50;99.90;;;;;;5068072;28;20409;-51
2021/01/01 06:12:02;;;;;;;2.58;1.83;;;3.60;99.90;;;;;;5070273;28;20040;-48
2021/01/01 06:14:39;;;;;;;2.45;1.98;;;3.50;99.90;;;;;;5087591;28;20076;-49
2021/01/01 06:17:07;;;;;;;1.70;1.50;;;3.60;99.90;;;;;;5067387;28;20025;-49
2021/01/01 06:19:46;;;;;;;2.45;1.70;;;3.60;99.90;;;;;;5067542;28;20024;-49
2021/01/01 06:22:19;;;;;;;2.10;1.70;;;3.50;99.90;;;;;;5066497;28;20386;-47
2021/01/01 06:24:56;;;;;;;2.38;1.95;;;3.50;99.90;;;;;;5088222;28;20070;-47
2021/01/01 06:27:27;;;;;;;3.20;2.35;;;3.60;99.90;;;;;;5079992;28;20040;-51
2021/01/01 06:30:04;;;;;;;3.10;2.50;;;3.40;99.90;;;;;;5066880;28;20479;-48
2021/01/01 06:32:33;;;;;;;2.95;2.38;;;3.30;99.90;;;;;;5067351;28;20070;-47
2021/01/01 06:35:41;;;;;;;3.17;2.50;;;3.40;99.90;;;;;;5066718;28;20583;-48
2021/01/01 06:38:06;;;;;;;2.50;2.10;;;3.10;99.90;;;;;;5082600;28;20505;-50
2021/01/01 06:40:35;;;;;;;3.33;2.70;;;3.30;99.90;;;;;;5081192;28;20120;-51
2021/01/01 06:43:09;;;;;;;2.90;2.42;;;3.00;99.90;;;;;;5086206;28;20069;-49
2021/01/01 06:45:44;;;;;;;2.37;2.17;;;3.10;99.90;;;;;;5086687;28;20103;-48
2021/01/01 06:48:11;;;;;;;2.95;2.55;;;3.40;99.90;;;;;;5083901;28;20036;-48
2021/01/01 06:50:43;;;;;;;2.63;2.15;;;3.10;99.90;;;;;;5085649;28;20118;-47
2021/01/01 06:53:14;;;;;;;2.03;1.80;;;3.20;99.90;;;;;;5085053;28;20035;-48
2021/01/01 06:55:42;;;;;;;3.30;2.55;;;3.40;99.90;;;;;;5082155;28;20375;-47
2021/01/01 06:58:09;;;;;;;2.88;2.40;;;3.30;99.90;;;;;;5076725;28;20070;-48
2021/01/01 07:00:50;;;;;;;2.42;2.22;;;3.20;99.90;;;;;;5072710;28;20023;-47
2021/01/01 07:03:33;;;;;;;3.38;3.00;;;3.20;99.90;;;;;;5067668;28;20078;-49
2021/01/01 07:06:01;;;;;;;3.67;2.75;;;3.10;99.90;;;;;;5079653;28;20096;-47
2021/01/01 07:08:45;;;;;;;3.47;2.70;;;3.10;99.90;;;;;;5080717;28;20032;-47
2021/01/01 07:11:10;;;;;;;3.20;2.60;;;3.20;99.90;;;;;;5073920;28;20040;-48
2021/01/01 07:13:47;;;;;;;3.75;3.10;;;3.10;99.90;;;;;;5084281;28;20278;-47
2021/01/01 07:16:14;;;;;;;6.10;3.80;;;3.20;99.90;;;;;;5085591;28;20036;-47
2021/01/01 07:18:40;;;;;;;4.25;3.28;;;3.10;99.90;;;;;;5085708;28;20065;-51
2021/01/01 07:21:08;;;;;;;7.43;4.68;;;3.10;99.90;;;;;;5083776;28;20034;-50
2021/01/01 07:23:35;;;;;;;12.43;6.82;;;3.10;99.90;;;;;;5086028;28;20050;-47
2021/01/01 07:26:04;;;;;;;11.35;6.30;;;2.90;99.90;;;;;;5085387;28;20445;-46
2021/01/01 07:28:29;;;;;;;25.90;10.43;;;3.10;99.90;;;;;;5082613;28;20081;-47
2021/01/01 07:30:55;;;;;;;23.42;9.77;;;3.10;99.90;;;;;;5071315;28;20494;-47
2021/01/01 07:33:32;;;;;;;22.48;11.30;;;3.10;99.90;;;;;;5085636;28;20032;-47
2021/01/01 07:36:06;;;;;;;19.70;8.88;;;3.10;99.90;;;;;;5085586;28;20478;-47
2021/01/01 07:38:34;;;;;;;10.98;6.53;;;3.10;99.90;;;;;;5085403;28;20089;-47
2021/01/01 07:41:00;;;;;;;8.75;5.68;;;2.80;99.90;;;;;;5083047;28;20043;-46
2021/01/01 07:43:26;;;;;;;7.38;5.00;;;2.90;99.90;;;;;;5076799;28;20028;-48
2021/01/01 07:45:56;;;;;;;6.47;4.65;;;3.00;99.90;;;;;;5069255;28;20548;-49
2021/01/01 07:48:22;;;;;;;8.65;5.25;;;2.80;99.90;;;;;;5079520;28;20111;-48
2021/01/01 07:50:48;;;;;;;7.05;5.00;;;2.80;99.90;;;;;;5086009;28;20103;-48
2021/01/01 07:53:14;;;;;;;7.00;4.60;;;3.00;99.90;;;;;;5086335;28;20108;-49
2021/01/01 07:55:41;;;;;;;8.82;5.70;;;3.00;99.90;;;;;;5083284;28;20035;-47
2021/01/01 07:58:10;;;;;;;6.70;4.60;;;2.80;99.90;;;;;;5069118;28;20020;-47
2021/01/01 08:00:42;;;;;;;8.18;5.72;;;3.10;99.90;;;;;;5086755;28;20028;-48
2021/01/01 08:03:09;;;;;;;6.57;4.72;;;2.90;99.90;;;;;;5089287;28;20024;-49
2021/01/01 08:05:36;;;;;;;7.30;4.82;;;2.80;99.90;;;;;;5088375;28;20041;-47
2021/01/01 08:08:14;;;;;;;7.03;5.00;;;3.10;99.90;;;;;;5088485;28;20039;-49
2021/01/01 08:10:41;;;;;;;7.00;5.38;;;2.90;99.90;;;;;;5074048;28;20028;-49
2021/01/01 08:13:29;;;;;;;7.35;5.30;;;2.80;99.90;;;;;;5087171;28;20207;-49
2021/01/01 08:15:57;;;;;;;6.32;5.05;;;3.00;99.90;;;;;;5088980;28;20043;-50
2021/01/01 08:18:24;;;;;;;6.45;4.75;;;3.00;99.90;;;;;;5088905;28;20125;-48
2021/01/01 08:21:04;;;;;;;6.50;5.05;;;2.90;99.90;;;;;;5088650;28;20024;-47
2021/01/01 08:23:39;;;;;;;6.53;4.97;;;3.10;99.90;;;;;;5067549;28;20390;-49
2021/01/01 08:26:07;;;;;;;8.15;5.28;;;3.10;99.90;;;;;;5068623;28;20029;-50
2021/01/01 08:28:35;;;;;;;7.63;4.72;;;3.10;99.90;;;;;;5068481;28;20028;-48
2021/01/01 08:31:03;;;;;;;6.70;5.03;;;3.10;99.90;;;;;;5080135;28;20031;-49
2021/01/01 08:33:36;;;;;;;5.82;4.40;;;3.10;99.90;;;;;;5087030;28;20032;-49
2021/01/01 08:36:07;;;;;;;7.97;5.28;;;3.20;99.90;;;;;;5088693;28;20296;-49
2021/01/01 08:38:34;;;;;;;6.82;5.13;;;3.00;99.90;;;;;;5088169;28;20077;-48
2021/01/01 08:41:01;;;;;;;6.47;5.00;;;3.20;99.90;;;;;;5088348;28;20047;-49
2021/01/01 08:43:29;;;;;;;6.53;4.65;;;3.20;99.90;;;;;;5075528;28;20036;-50
2021/01/01 08:45:54;;;;;;;8.35;5.78;;;3.30;99.90;;;;;;5068091;28;20032;-47
2021/01/01 08:48:21;;;;;;;8.88;5.75;;;3.00;99.90;;;;;;5070925;28;20036;-47
2021/01/01 08:50:51;;;;;;;6.80;4.88;;;3.20;99.90;;;;;;5070570;28;20047;-50
2021/01/01 08:53:19;;;;;;;8.02;5.32;;;3.30;99.90;;;;;;5068948;28;20029;-48
2021/01/01 08:55:59;;;;;;;7.13;5.00;;;3.30;99.90;;;;;;5069209;28;20471;-49
2021/01/01 08:58:26;;;;;;;8.65;6.13;;;3.40;99.90;;;;;;5068182;28;20435;-46
2021/01/01 09:00:52;;;;;;;7.72;5.28;;;3.20;99.90;;;;;;5083454;28;20057;-47
2021/01/01 09:03:21;;;;;;;9.85;6.40;;;3.40;99.90;;;;;;5089107;28;20059;-48
2021/01/01 09:05:54;;;;;;;6.72;5.05;;;3.40;99.90;;;;;;5085637;28;20029;-49
2021/01/01 09:08:24;;;;;;;10.35;6.85;;;3.50;99.90;;;;;;5087230;28;20232;-52
2021/01/01 09:10:54;;;;;;;12.00;7.82;;;3.50;99.90;;;;;;5086391;28;20047;-48
2021/01/01 09:13:30;;;;;;;11.55;7.82;;;3.50;99.90;;;;;;5087772;28;20035;-51
2021/01/01 09:16:12;;;;;;;13.38;9.75;;;3.40;99.90;;;;;;5087907;28;20042;-51
2021/01/01 09:18:38;;;;;;;15.45;9.98;;;3.40;99.90;;;;;;5088304;28;20051;-48
2021/01/01 09:21:11;;;;;;;14.48;9.20;;;3.50;99.90;;;;;;5071805;28;20052;-50
2021/01/01 09:23:38;;;;;;;16.67;10.57;;;3.60;99.90;;;;;;5086831;28;20032;-50
2021/01/01 09:26:05;;;;;;;14.45;9.40;;;3.60;99.90;;;;;;5073784;28;20033;-48
2021/01/01 09:28:31;;;;;;;13.48;8.35;;;3.50;99.90;;;;;;5074936;28;20040;-49
2021/01/01 09:30:56;;;;;;;13.50;8.57;;;3.50;99.90;;;;;;5086396;28;20028;-49
2021/01/01 09:33:23;;;;;;;14.00;7.82;;;3.70;99.90;;;;;;5078706;28;20032;-51
2021/01/01 09:35:49;;;;;;;12.65;7.43;;;3.60;99.90;;;;;;5087063;28;20058;-47
2021/01/01 09:38:15;;;;;;;8.25;5.38;;;3.40;99.90;;;;;;5088653;28;20074;-49
2021/01/01 09:40:40;;;;;;;9.10;5.93;;;3.60;99.90;;;;;;5087778;28;20032;-49
2021/01/01 09:43:07;;;;;;;10.13;6.60;;;3.60;99.90;;;;;;5087160;28;20070;-51
2021/01/01 09:45:35;;;;;;;11.25;7.25;;;3.70;99.90;;;;;;5069877;28;20486;-49
2021/01/01 09:48:02;;;;;;;11.65;7.47;;;3.70;99.90;;;;;;5066956;28;20077;-47
2021/01/01 09:50:27;;;;;;;10.63;6.70;;;3.70;99.90;;;;;;5086233;28;20020;-48
2021/01/01 09:52:53;;;;;;;10.73;7.28;;;3.80;99.90;;;;;;5079627;28;20029;-47
2021/01/01 09:55:19;;;;;;;8.85;6.07;;;4.00;99.90;;;;;;5067870;28;20025;-48
2021/01/01 09:57:46;;;;;;;9.82;6.38;;;4.00;99.90;;;;;;5087429;28;20032;-49
2021/01/01 10:00:14;;;;;;;13.48;8.02;;;4.10;99.90;;;;;;5087430;28;20020;-50
2021/01/01 10:02:40;;;;;;;19.25;9.35;;;3.80;99.90;;;;;;5080373;28;20554;-49
2021/01/01 10:05:07;;;;;;;18.00;8.70;;;3.80;99.90;;;;;;5066932;28;20541;-51
2021/01/01 10:07:33;;;;;;;14.75;7.72;;;3.80;99.90;;;;;;5076478;28;20144;-50
2021/01/01 10:09:59;;;;;;;15.43;8.30;;;4.00;99.90;;;;;;5086018;28;20061;-49
2021/01/01 10:12:26;;;;;;;18.95;9.13;;;3.80;99.90;;;;;;5083712;28;20051;-52
2021/01/01 10:14:54;;;;;;;23.48;11.40;;;3.80;99.90;;;;;;5081239;28;20028;-48
2021/01/01 10:17:29;;;;;;;21.45;10.48;;;3.90;99.90;;;;;;5070010;28;20115;-50
2021/01/01 10:19:56;;;;;;;22.90;11.68;;;3.90;99.90;;;;;;5077628;28;20017;-47
2021/01/01 10:22:22;;;;;;;20.33;11.00;;;3.90;99.90;;;;;;5065984;28;20024;-52
2021/01/01 10:24:48;;;;;;;17.40;9.35;;;3.90;99.90;;;;;;5067023;28;20024;-50
2021/01/01 10:27:15;;;;;;;15.63;9.27;;;3.80;99.90;;;;;;5066883;28;20020;-48
2021/01/01 10:29:42;;;;;;;11.85;7.60;;;3.80;99.90;;;;;;5066484;28;20028;-48
2021/01/01 10:32:11;;;;;;;12.18;7.80;;;3.70;99.90;;;;;;5073743;28;20035;-47
2021/01/01 10:34:42;;;;;;;12.18;7.80;;;3.90;99.90;;;;;;5086675;28;20556;-47
2021/01/01 10:37:08;;;;;;;13.15;8.75;;;3.90;99.90;;;;;;5083689;28;20016;-49
2021/01/01 10:39:34;;;;;;;12.15;7.78;;;3.90;99.90;;;;;;5087878;28;20024;-50
2021/01/01 10:42:01;;;;;;;10.32;7.15;;;3.80;99.90;;;;;;5087284;28;20020;-47
2021/01/01 10:44:27;;;;;;;9.73;6.82;;;4.10;99.90;;;;;;5086786;28;20024;-49
2021/01/01 10:46:53;;;;;;;14.23;8.98;;;3.90;99.90;;;;;;5082309;28;20031;-47
2021/01/01 10:49:22;;;;;;;14.27;8.90;;;3.90;99.90;;;;;;5087398;28;20032;-48
2021/01/01 10:51:48;;;;;;;11.00;7.35;;;4.10;99.90;;;;;;5088043;28;20051;-48
2021/01/01 10:54:15;;;;;;;9.15;6.07;;;4.20;99.90;;;;;;5088276;28;20106;-47
2021/01/01 10:56:40;;;;;;;9.20;6.20;;;4.00;99.90;;;;;;5087521;28;20032;-47
2021/01/01 10:59:07;;;;;;;8.23;5.93;;;4.30;99.90;;;;;;5072081;28;20481;-48
2021/01/01 11:01:32;;;;;;;11.65;7.47;;;4.20;99.90;;;;;;5065912;28;20037;-46
2021/01/01 11:03:58;;;;;;;13.82;9.00;;;4.20;99.90;;;;;;5066875;28;20031;-47
2021/01/01 11:06:24;;;;;;;17.27;9.32;;;4.10;99.90;;;;;;5067177;28;20466;-46
2021/01/01 11:08:49;;;;;;;18.38;9.93;;;4.30;99.90;;;;;;5075978;28;20069;-47
2021/01/01 11:11:22;;;;;;;18.02;9.93;;;4.20;99.90;;;;;;5086818;28;20043;-50
2021/01/01 11:13:50;;;;;;;16.38;9.15;;;4.30;99.90;;;;;;5083570;28;20032;-50
2021/01/01 12:25:15;;;;;;;11.88;7.90;;;;;;;;;;5083183;28;20081;-49
2021/01/01 12:27:42;;;;;;;10.10;7.03;;;;;;;;;;5084514;28;20039;-48
2021/01/01 12:30:09;;;;;;;10.30;7.28;;;;;;;;;;5079705;28;20035;-50
2021/01/01 12:32:36;;;;;;;10.20;6.38;;;;;;;;;;5083297;28;20103;-50
2021/01/01 12:35:03;;;;;;;9.77;5.75;;;;;;;;;;5083317;28;20036;-49
2021/01/01 12:37:29;;;;;;;9.73;6.50;;;;;;;;;;5084498;28;20020;-50
2021/01/01 12:39:55;;;;;;;8.43;6.05;;;;;;;;;;5079997;28;20162;-51
2021/01/01 12:42:21;;;;;;;8.75;5.80;;;;;;;;;;5087841;28;20857;-51
2021/01/01 12:44:47;;;;;;;12.13;7.43;;;;;;;;;;5086323;28;20032;-53
2021/01/01 12:47:14;;;;;;;12.65;7.20;;;;;;;;;;5084481;28;20028;-48
2021/01/01 12:49:42;;;;;;;11.15;7.00;;;;;;;;;;5073123;28;20493;-50
2021/01/01 12:52:08;;;;;;;10.45;7.38;;;;;;;;;;5072184;28;20066;-49
2021/01/01 12:54:34;;;;;;;13.60;8.40;;;;;;;;;;5088479;28;20032;-48
2021/01/01 12:57:00;;;;;;;12.95;8.20;;;;;;;;;;5087356;28;20027;-49
2021/01/01 12:59:26;;;;;;;20.55;11.32;;;;;;;;;;5087620;28;20040;-48
2021/01/01 13:01:53;;;;;;;18.48;11.13;;;;;;;;;;5077443;28;20021;-47
2021/01/01 13:04:19;;;;;;;16.67;10.15;;;;;;;;;;5070153;28;20024;-50
2021/01/01 13:06:45;;;;;;;12.43;8.48;;;;;;;;;;5066907;28;20031;-48
2021/01/01 13:09:12;;;;;;;10.15;7.18;;;;;;;;;;5078674;28;20039;-52
2021/01/01 13:11:47;;;;;;;8.70;6.28;;;;;;;;;;5088091;28;20040;-51
2021/01/01 13:14:13;;;;;;;12.43;6.93;;;;;;;;;;5088673;28;20028;-49
2021/01/01 13:16:39;;;;;;;8.80;6.25;;;;;;;;;;5088317;28;20012;-49
2021/01/01 13:19:05;;;;;;;9.00;5.32;;;;;;;;;;5088294;28;20055;-51
2021/01/01 13:21:33;;;;;;;6.95;5.10;;;;;;;;;;5085647;28;20020;-49
2021/01/01 13:24:00;;;;;;;7.20;5.32;;;;;;;;;;5086932;28;20038;-47
2021/01/01 13:26:26;;;;;;;7.72;5.47;;;;;;;;;;5086782;28;20607;-49
2021/01/01 13:28:53;;;;;;;9.07;6.00;;;;;;;;;;5086653;28;20085;-49
2021/01/01 13:31:19;;;;;;;7.35;5.15;;;;;;;;;;5086795;28;20020;-49
2021/01/01 13:33:46;;;;;;;6.47;4.95;;;;;;;;;;5086288;28;20043;-48
2021/01/01 13:36:16;;;;;;;7.47;5.40;;;;;;;;;;5084746;28;20507;-48
2021/01/01 13:38:43;;;;;;;6.70;4.93;;;;;;;;;;5086214;28;20430;-48
2021/01/01 13:41:10;;;;;;;7.88;5.72;;;;;;;;;;5086995;28;20028;-49
2021/01/01 13:43:43;;;;;;;8.18;5.82;;;;;;;;;;5086725;28;20032;-48
2021/01/01 13:46:09;;;;;;;7.32;5.57;;;;;;;;;;5086007;28;20483;-47
2021/01/01 13:48:36;;;;;;;7.38;5.88;;;;;;;;;;5086861;28;20425;-49
2021/01/01 13:51:06;;;;;;;7.03;4.88;;;;;;;;;;5085537;28;20020;-49
2021/01/01 13:53:32;;;;;;;8.13;5.28;;;;;;;;;;5086180;28;20081;-50
2021/01/01 13:55:59;;;;;;;9.63;6.65;;;;;;;;;;5085920;28;20020;-47
2021/01/01 13:58:25;;;;;;;9.40;6.68;;;;;;;;;;5086436;28;20204;-48
2021/01/01 14:00:51;;;;;;;8.27;5.88;;;;;;;;;;5086359;28;20032;-51
2021/01/01 14:03:19;;;;;;;7.70;5.63;;;;;;;;;;5086228;28;20390;-50
2021/01/01 14:05:51;;;;;;;8.68;6.15;;;;;;;;;;5086056;28;20060;-48
2021/01/01 14:08:18;;;;;;;8.57;5.82;;;;;;;;;;5085984;28;20032;-50
2021/01/01 14:10:47;;;;;;;12.00;7.03;;;;;;;;;;5086056;28;20032;-48
2021/01/01 14:13:13;;;;;;;16.38;9.18;;;;;;;;;;5086374;28;20104;-48
2021/01/01 14:15:39;;;;;;;16.20;9.52;;;;;;;;;;5086830;28;20041;-47
2021/01/01 14:18:06;;;;;;;12.48;7.80;;;;;;;;;;5066423;28;20057;-48
2021/01/01 14:20:32;;;;;;;11.80;6.95;;;;;;;;;;5065177;28;20025;-49